Time;durP1;ratioP1;P1;durP2;ratioP2;P2;SDS_P1;SDS_P2;PMS_P1;PMS_P2;Temp;Humidity;BMP_temperature;BMP_pressure;BME280_temperature;BME280_humidity;BME280_pressure;Samples;Min_cycle;Max_cycle;Signal;HPM_P1;HPM_P2
2023/03/12 00:00:35;;;;;;;23.08;5.30;;;;;;;;;;5053413;28;20029;-79
2023/03/12 00:03:00;;;;;;;13.50;4.47;;;;;;;;;;5053688;28;20033;-80
2023/03/12 00:05:26;;;;;;;15.95;4.28;;;;;;;;;;5036849;28;20362;-79
2023/03/12 00:07:52;;;;;;;8.82;4.28;;;;;;;;;;5053536;28;20021;-80
2023/03/12 00:10:19;;;;;;;15.15;4.35;;;;;;;;;;5054534;28;20029;-79
2023/03/12 00:12:45;;;;;;;12.90;4.72;;;;;;;;;;5037088;28;20516;-79
2023/03/12 00:15:10;;;;;;;11.95;4.18;;;;;;;;;;5053011;28;20060;-80
2023/03/12 00:17:36;;;;;;;11.88;4.68;;;;;;;;;;5053234;28;20029;-78
2023/03/12 00:20:02;;;;;;;14.77;4.25;;;;;;;;;;5054412;28;20029;-79
2023/03/12 00:22:27;;;;;;;9.85;4.20;;;;;;;;;;5036747;28;20032;-80
2023/03/12 00:24:54;;;;;;;15.05;4.22;;;;;;;;;;5020191;28;20035;-80
2023/03/12 00:27:20;;;;;;;9.95;3.63;;;;;;;;;;5053111;28;20471;-78
2023/03/12 00:29:45;;;;;;;12.30;3.67;;;;;;;;;;5036146;28;20025;-79
2023/03/12 00:32:11;;;;;;;9.25;4.00;;;;;;;;;;5036564;28;20453;-78
2023/03/12 00:34:36;;;;;;;9.85;3.88;;;;;;;;;;5052479;28;20035;-78
2023/03/12 00:37:02;;;;;;;11.40;3.78;;;;;;;;;;5052791;28;20078;-79
2023/03/12 00:39:27;;;;;;;13.10;4.70;;;;;;;;;;5052824;28;20055;-79
2023/03/12 00:41:52;;;;;;;14.77;4.18;;;;;;;;;;5019814;28;20037;-78
2023/03/12 00:44:18;;;;;;;23.52;3.70;;;;;;;;;;5052444;28;20060;-79
2023/03/12 00:46:43;;;;;;;11.27;3.80;;;;;;;;;;5036232;28;20033;-78
2023/03/12 00:49:10;;;;;;;11.70;3.50;;;;;;;;;;5036280;28;20506;-79
2023/03/12 00:51:36;;;;;;;11.15;4.05;;;;;;;;;;5036261;28;20063;-79
2023/03/12 00:54:01;;;;;;;10.45;3.72;;;;;;;;;;5036088;28;20065;-78
2023/03/12 00:56:27;;;;;;;12.52;3.90;;;;;;;;;;5035914;28;20025;-78
2023/03/12 00:58:52;;;;;;;14.80;4.50;;;;;;;;;;5053668;28;20025;-79
2023/03/12 01:01:18;;;;;;;11.55;4.00;;;;;;;;;;5052550;28;20363;-79
2023/03/12 01:03:44;;;;;;;10.18;4.78;;;;;;;;;;5053612;28;20117;-78
2023/03/12 01:06:09;;;;;;;12.65;4.20;;;;;;;;;;5035995;28;20080;-79
2023/03/12 01:08:35;;;;;;;7.32;4.00;;;;;;;;;;5052491;28;20035;-79
2023/03/12 01:11:00;;;;;;;10.25;4.20;;;;;;;;;;5052434;28;20366;-79
2023/03/12 01:13:26;;;;;;;17.25;4.97;;;;;;;;;;5053399;28;20039;-78
2023/03/12 01:15:51;;;;;;;14.13;4.75;;;;;;;;;;5052453;28;20033;-78
2023/03/12 01:18:17;;;;;;;14.75;5.10;;;;;;;;;;5053737;28;20130;-78
2023/03/12 01:20:42;;;;;;;13.73;4.20;;;;;;;;;;5035979;28;20033;-79
2023/03/12 01:23:08;;;;;;;8.88;4.15;;;;;;;;;;5035667;28;20041;-79
2023/03/12 01:25:34;;;;;;;15.48;4.97;;;;;;;;;;5035692;28;20032;-79
2023/03/12 01:28:00;;;;;;;15.13;5.10;;;;;;;;;;5019365;28;20075;-79
2023/03/12 01:30:26;;;;;;;10.60;4.75;;;;;;;;;;5051955;28;20423;-79
2023/03/12 01:32:52;;;;;;;13.13;5.00;;;;;;;;;;5052291;28;20021;-78
2023/03/12 01:35:17;;;;;;;13.75;4.85;;;;;;;;;;5052391;28;20081;-79
2023/03/12 01:37:43;;;;;;;13.35;4.35;;;;;;;;;;5053474;28;20442;-79
2023/03/12 01:40:16;;;;;;;11.20;5.60;;;;;;;;;;5035505;28;20083;-79
2023/03/12 01:42:42;;;;;;;11.07;4.75;;;;;;;;;;5035730;28;20041;-78
2023/03/12 01:45:45;;;;;;;12.40;4.88;;;;;;;;;;5052201;28;20162;-79
2023/03/12 01:48:10;;;;;;;15.32;4.35;;;;;;;;;;5056886;28;20024;-79
2023/03/12 01:50:36;;;;;;;11.70;4.65;;;;;;;;;;5039323;28;20025;-79
2023/03/12 01:53:01;;;;;;;11.35;5.18;;;;;;;;;;5055923;28;20032;-79
2023/03/12 01:55:27;;;;;;;14.55;4.45;;;;;;;;;;5055973;28;20052;-78
2023/03/12 01:57:54;;;;;;;12.45;4.35;;;;;;;;;;5055607;28;20025;-78
2023/03/12 02:00:22;;;;;;;9.13;4.38;;;;;;;;;;5039408;28;20029;-79
2023/03/12 02:02:48;;;;;;;11.60;4.70;;;;;;;;;;5039557;28;20036;-79
2023/03/12 02:05:26;;;;;;;12.43;4.75;;;;;;;;;;5022615;28;20186;-79
2023/03/12 02:07:51;;;;;;;15.90;4.38;;;;;;;;;;5055726;28;20500;-78
2023/03/12 02:10:17;;;;;;;11.80;4.72;;;;;;;;;;5039092;28;20028;-78
2023/03/12 02:12:42;;;;;;;15.32;4.63;;;;;;;;;;5038926;28;20029;-78
2023/03/12 02:15:08;;;;;;;13.20;4.10;;;;;;;;;;5055762;28;20036;-79
2023/03/12 02:17:34;;;;;;;8.00;4.22;;;;;;;;;;5038833;28;20029;-78
2023/03/12 02:20:18;;;;;;;10.32;4.15;;;;;;;;;;5039226;28;20025;-79
2023/03/12 02:22:48;;;;;;;12.05;4.30;;;;;;;;;;5039529;28;20033;-79
2023/03/12 02:25:43;;;;;;;7.00;3.40;;;;;;;;;;5038871;28;20029;-78
2023/03/12 02:28:11;;;;;;;9.80;4.22;;;;;;;;;;5039176;28;20091;-78
2023/03/12 02:30:37;;;;;;;10.45;4.57;;;;;;;;;;5022395;28;20382;-78
2023/03/12 02:33:05;;;;;;;10.85;3.92;;;;;;;;;;5055399;28;20024;-78
2023/03/12 02:35:30;;;;;;;8.80;4.00;;;;;;;;;;5038732;28;20094;-79
2023/03/12 02:37:56;;;;;;;9.88;4.32;;;;;;;;;;5038570;28;20032;-78
2023/03/12 02:40:38;;;;;;;17.67;5.20;;;;;;;;;;5054670;28;20116;-78
2023/03/12 02:43:05;;;;;;;17.10;4.57;;;;;;;;;;5055187;28;20025;-78
2023/03/12 02:45:31;;;;;;;9.05;4.30;;;;;;;;;;5038554;28;20068;-78
2023/03/12 02:47:56;;;;;;;10.57;3.90;;;;;;;;;;5021868;28;20052;-78
2023/03/12 02:50:22;;;;;;;8.45;3.80;;;;;;;;;;5021794;28;20036;-77
2023/03/12 02:52:47;;;;;;;10.00;3.63;;;;;;;;;;5021883;28;20043;-77
2023/03/12 02:55:13;;;;;;;12.00;4.03;;;;;;;;;;5038143;28;20378;-77
2023/03/12 02:57:38;;;;;;;9.27;3.92;;;;;;;;;;5037722;28;20025;-78
2023/03/12 03:00:06;;;;;;;7.90;4.03;;;;;;;;;;5021694;28;20025;-78
2023/03/12 03:02:31;;;;;;;11.30;3.58;;;;;;;;;;5021745;28;20032;-78
2023/03/12 03:04:57;;;;;;;10.40;4.25;;;;;;;;;;5038177;28;20032;-79
2023/03/12 03:07:22;;;;;;;8.63;4.35;;;;;;;;;;5054670;28;20033;-78
2023/03/12 03:09:48;;;;;;;12.18;4.38;;;;;;;;;;5055573;28;20025;-78
2023/03/12 03:12:13;;;;;;;10.25;4.43;;;;;;;;;;5038220;28;20033;-79
2023/03/12 03:14:38;;;;;;;20.90;4.47;;;;;;;;;;5055718;28;20029;-78
2023/03/12 03:17:04;;;;;;;10.52;4.70;;;;;;;;;;5037817;28;20063;-78
2023/03/12 03:19:29;;;;;;;8.43;4.18;;;;;;;;;;5054339;28;20067;-78
2023/03/12 03:21:55;;;;;;;9.02;4.40;;;;;;;;;;5055435;28;20029;-79
2023/03/12 03:24:20;;;;;;;9.88;4.10;;;;;;;;;;5037332;28;20031;-79
2023/03/12 03:26:45;;;;;;;7.15;4.03;;;;;;;;;;5054134;28;20099;-78
2023/03/12 03:29:11;;;;;;;8.45;4.78;;;;;;;;;;5037598;28;20086;-77
2023/03/12 03:31:36;;;;;;;9.52;3.90;;;;;;;;;;5054050;28;20090;-78
2023/03/12 03:34:02;;;;;;;11.00;4.20;;;;;;;;;;5055314;28;20036;-79
2023/03/12 03:36:28;;;;;;;10.15;4.07;;;;;;;;;;5054087;28;20060;-78
2023/03/12 03:38:53;;;;;;;10.13;4.30;;;;;;;;;;5053599;28;20045;-78
2023/03/12 03:41:19;;;;;;;9.95;4.00;;;;;;;;;;5021367;28;20447;-78
2023/03/12 03:43:44;;;;;;;7.07;3.60;;;;;;;;;;5037516;28;20040;-77
2023/03/12 03:46:10;;;;;;;10.15;4.38;;;;;;;;;;5053929;28;20024;-78
2023/03/12 03:48:36;;;;;;;7.90;4.00;;;;;;;;;;5054006;28;20024;-78
2023/03/12 03:51:02;;;;;;;9.07;3.88;;;;;;;;;;5054962;28;20439;-77
2023/03/12 03:53:28;;;;;;;14.93;5.03;;;;;;;;;;5053486;28;20032;-78
2023/03/12 03:55:53;;;;;;;13.88;4.68;;;;;;;;;;5037383;28;20025;-77
2023/03/12 03:58:19;;;;;;;8.35;3.55;;;;;;;;;;5054783;28;20111;-78
2023/03/12 04:00:44;;;;;;;8.50;3.90;;;;;;;;;;5037091;28;20029;-79
2023/03/12 04:03:10;;;;;;;8.75;4.15;;;;;;;;;;5037168;28;20036;-77
2023/03/12 04:05:35;;;;;;;8.95;4.50;;;;;;;;;;5020618;28;20086;-78
2023/03/12 04:08:02;;;;;;;7.03;3.67;;;;;;;;;;5037539;28;20048;-78
2023/03/12 04:10:28;;;;;;;14.73;4.72;;;;;;;;;;5036071;28;20382;-78
2023/03/12 04:12:54;;;;;;;9.88;4.63;;;;;;;;;;5036754;28;20033;-78
2023/03/12 04:15:19;;;;;;;8.38;4.28;;;;;;;;;;5036738;28;20037;-77
2023/03/12 04:17:44;;;;;;;8.15;4.10;;;;;;;;;;5020040;28;20047;-77
2023/03/12 04:20:10;;;;;;;8.02;4.50;;;;;;;;;;5020233;28;20257;-78
2023/03/12 04:22:36;;;;;;;9.65;4.40;;;;;;;;;;5019990;28;20068;-77
2023/03/12 04:25:02;;;;;;;13.15;4.72;;;;;;;;;;5036809;28;20078;-78
2023/03/12 04:27:27;;;;;;;10.27;4.75;;;;;;;;;;5036734;28;20366;-78
2023/03/12 04:29:53;;;;;;;9.93;4.57;;;;;;;;;;5020546;28;20390;-77
2023/03/12 04:32:18;;;;;;;8.10;4.32;;;;;;;;;;5054220;28;20029;-78
2023/03/12 04:34:43;;;;;;;8.20;4.32;;;;;;;;;;5053221;28;20076;-78
2023/03/12 04:37:15;;;;;;;7.53;4.30;;;;;;;;;;5053287;28;20029;-78
2023/03/12 04:39:41;;;;;;;7.47;4.28;;;;;;;;;;5053233;28;20071;-78
2023/03/12 04:42:07;;;;;;;11.63;4.30;;;;;;;;;;5036529;28;20227;-78
2023/03/12 04:44:32;;;;;;;6.45;4.20;;;;;;;;;;5054118;28;20126;-78
2023/03/12 04:46:58;;;;;;;9.23;4.80;;;;;;;;;;5052852;28;20391;-79
2023/03/12 04:49:23;;;;;;;7.90;4.63;;;;;;;;;;5053952;28;20028;-78
2023/03/12 04:51:49;;;;;;;8.65;4.82;;;;;;;;;;5052489;28;20021;-78
2023/03/12 04:54:14;;;;;;;13.25;5.30;;;;;;;;;;5036257;28;20057;-78
2023/03/12 04:56:39;;;;;;;10.15;4.53;;;;;;;;;;5036294;28;20035;-79
2023/03/12 04:59:05;;;;;;;8.65;4.50;;;;;;;;;;5052661;28;20029;-79
2023/03/12 05:01:32;;;;;;;10.98;5.03;;;;;;;;;;5019885;28;20039;-78
2023/03/12 05:03:57;;;;;;;12.27;5.30;;;;;;;;;;5052555;28;20033;-78
2023/03/12 05:06:23;;;;;;;10.70;5.47;;;;;;;;;;5019497;28;20036;-78
2023/03/12 05:08:49;;;;;;;15.05;5.38;;;;;;;;;;5052547;28;20128;-78
2023/03/12 05:11:14;;;;;;;10.57;4.97;;;;;;;;;;5036026;28;20025;-78
2023/03/12 05:13:40;;;;;;;8.35;4.93;;;;;;;;;;5036014;28;20029;-78
2023/03/12 05:16:05;;;;;;;15.88;6.13;;;;;;;;;;5053736;28;20025;-78
2023/03/12 05:18:31;;;;;;;10.27;5.68;;;;;;;;;;5052536;28;20029;-78
2023/03/12 05:21:00;;;;;;;11.88;5.50;;;;;;;;;;5037429;28;20028;-78
2023/03/12 05:23:26;;;;;;;12.32;5.00;;;;;;;;;;5040115;28;20124;-78
2023/03/12 05:25:52;;;;;;;12.20;5.55;;;;;;;;;;5040039;28;20060;-78
2023/03/12 05:28:19;;;;;;;10.77;5.03;;;;;;;;;;5056561;28;20033;-78
2023/03/12 05:30:44;;;;;;;9.95;5.35;;;;;;;;;;5057960;28;20033;-79
2023/03/12 05:33:10;;;;;;;12.82;5.88;;;;;;;;;;5056468;28;20447;-78
2023/03/12 05:35:35;;;;;;;8.85;4.60;;;;;;;;;;5056172;28;20033;-78
2023/03/12 05:38:01;;;;;;;11.48;5.65;;;;;;;;;;5056213;28;20033;-79
2023/03/12 05:40:26;;;;;;;10.23;4.88;;;;;;;;;;5056363;28;20481;-78
2023/03/12 05:42:52;;;;;;;11.43;5.95;;;;;;;;;;5039723;28;20044;-78
2023/03/12 05:45:18;;;;;;;9.00;4.97;;;;;;;;;;5039763;28;20091;-79
2023/03/12 05:47:44;;;;;;;11.27;5.80;;;;;;;;;;5039662;28;20021;-79
2023/03/12 05:50:10;;;;;;;12.35;6.30;;;;;;;;;;5039323;28;20035;-79
2023/03/12 05:52:35;;;;;;;13.38;5.72;;;;;;;;;;5039739;28;20458;-78
2023/03/12 05:55:01;;;;;;;12.30;6.15;;;;;;;;;;5056017;28;20059;-79
2023/03/12 05:57:26;;;;;;;12.38;5.85;;;;;;;;;;5056293;28;20031;-80
2023/03/12 05:59:52;;;;;;;10.32;5.97;;;;;;;;;;5039641;28;20470;-79
2023/03/12 06:02:17;;;;;;;12.05;6.35;;;;;;;;;;5039372;28;20506;-80
2023/03/12 06:04:42;;;;;;;12.77;5.93;;;;;;;;;;5039124;28;20029;-80
2023/03/12 06:07:08;;;;;;;11.15;6.22;;;;;;;;;;5055920;28;20064;-79
2023/03/12 06:09:34;;;;;;;15.35;6.47;;;;;;;;;;5039032;28;20033;-79
2023/03/12 06:12:00;;;;;;;13.13;7.07;;;;;;;;;;5055946;28;20040;-80
2023/03/12 06:14:25;;;;;;;13.43;7.25;;;;;;;;;;5055736;28;20025;-78
2023/03/12 06:16:50;;;;;;;12.18;6.10;;;;;;;;;;5038905;28;20114;-79
2023/03/12 06:19:16;;;;;;;12.40;6.68;;;;;;;;;;5056584;28;20025;-79
2023/03/12 06:21:42;;;;;;;13.75;6.32;;;;;;;;;;5022538;28;20029;-79
2023/03/12 06:24:07;;;;;;;11.90;5.60;;;;;;;;;;5022609;28;20036;-80
2023/03/12 06:26:33;;;;;;;11.93;5.82;;;;;;;;;;5022267;28;20025;-79
2023/03/12 06:28:58;;;;;;;16.17;7.18;;;;;;;;;;5055375;28;20029;-79
2023/03/12 06:31:24;;;;;;;9.77;5.38;;;;;;;;;;5038726;28;20413;-79
2023/03/12 06:33:49;;;;;;;13.80;6.05;;;;;;;;;;5054498;28;20048;-79
2023/03/12 06:36:15;;;;;;;11.52;6.45;;;;;;;;;;5022382;28;20084;-80
2023/03/12 06:38:40;;;;;;;14.02;7.43;;;;;;;;;;5022308;28;20048;-78
2023/03/12 06:41:08;;;;;;;12.30;6.70;;;;;;;;;;5038534;28;20025;-78
2023/03/12 06:43:34;;;;;;;10.63;5.68;;;;;;;;;;5022312;28;20044;-79
2023/03/12 06:46:00;;;;;;;14.55;6.75;;;;;;;;;;5056090;28;20029;-80
2023/03/12 06:48:27;;;;;;;8.50;4.72;;;;;;;;;;5038470;28;20025;-79
2023/03/12 06:50:52;;;;;;;11.43;6.28;;;;;;;;;;5055104;28;20025;-80
2023/03/12 06:53:18;;;;;;;15.45;5.88;;;;;;;;;;5056183;28;20021;-80
2023/03/12 06:55:44;;;;;;;10.20;5.97;;;;;;;;;;5056164;28;20054;-79
2023/03/12 06:58:09;;;;;;;10.32;5.57;;;;;;;;;;5056201;28;20455;-80
2023/03/12 07:00:35;;;;;;;8.07;5.68;;;;;;;;;;5037961;28;20107;-80
2023/03/12 07:03:00;;;;;;;8.32;5.40;;;;;;;;;;5054759;28;20182;-79
2023/03/12 07:05:26;;;;;;;8.63;5.65;;;;;;;;;;5038737;28;20434;-79
2023/03/12 07:07:51;;;;;;;9.75;6.20;;;;;;;;;;5054933;28;20470;-79
2023/03/12 07:10:17;;;;;;;8.98;6.30;;;;;;;;;;5037904;28;20041;-80
2023/03/12 07:12:42;;;;;;;8.45;5.80;;;;;;;;;;5038217;28;20036;-80
2023/03/12 07:15:08;;;;;;;9.40;6.75;;;;;;;;;;5054196;28;20065;-79
2023/03/12 07:17:34;;;;;;;11.07;6.45;;;;;;;;;;5038278;28;20072;-80
2023/03/12 07:19:59;;;;;;;11.05;7.35;;;;;;;;;;5055857;28;20029;-80
2023/03/12 07:22:25;;;;;;;12.02;7.18;;;;;;;;;;5037856;28;20033;-79
2023/03/12 07:24:50;;;;;;;14.07;8.13;;;;;;;;;;5054379;28;20029;-79
2023/03/12 07:27:16;;;;;;;13.82;7.38;;;;;;;;;;5054312;28;20033;-80
2023/03/12 07:29:42;;;;;;;11.73;7.93;;;;;;;;;;5053946;28;20332;-79
2023/03/12 07:32:07;;;;;;;15.57;7.80;;;;;;;;;;5037694;28;20146;-79
2023/03/12 07:34:33;;;;;;;13.07;7.75;;;;;;;;;;5037830;28;20439;-80
2023/03/12 07:36:58;;;;;;;12.10;7.45;;;;;;;;;;5054419;28;20037;-79
2023/03/12 07:39:25;;;;;;;13.88;7.78;;;;;;;;;;5053943;28;20041;-80
2023/03/12 07:41:51;;;;;;;19.33;9.60;;;;;;;;;;5037403;28;20092;-81
2023/03/12 07:44:16;;;;;;;18.63;7.82;;;;;;;;;;5054865;28;20450;-80
2023/03/12 07:46:42;;;;;;;25.42;8.52;;;;;;;;;;5055276;28;20032;-80
2023/03/12 07:49:07;;;;;;;16.27;8.20;;;;;;;;;;5053887;28;20032;-80
2023/03/12 07:51:33;;;;;;;13.70;8.20;;;;;;;;;;5020905;28;20024;-80
2023/03/12 07:53:58;;;;;;;12.77;7.90;;;;;;;;;;5054179;28;20025;-80
2023/03/12 07:56:23;;;;;;;15.68;8.70;;;;;;;;;;5054960;28;20021;-80
2023/03/12 07:58:49;;;;;;;15.35;9.35;;;;;;;;;;5054537;28;20067;-81
2023/03/12 08:01:14;;;;;;;16.73;8.43;;;;;;;;;;5053920;28;20021;-80
2023/03/12 08:03:40;;;;;;;15.75;8.18;;;;;;;;;;5036855;28;20037;-80
2023/03/12 08:06:05;;;;;;;16.85;7.93;;;;;;;;;;5053797;28;20320;-80
2023/03/12 08:08:31;;;;;;;14.50;8.55;;;;;;;;;;5054645;28;20343;-78
2023/03/12 08:10:57;;;;;;;14.05;8.00;;;;;;;;;;5053484;28;20029;-80
2023/03/12 08:13:23;;;;;;;17.38;7.85;;;;;;;;;;5020126;28;20029;-79
2023/03/12 08:15:51;;;;;;;14.15;8.75;;;;;;;;;;5020196;28;20415;-80
2023/03/12 08:18:17;;;;;;;15.75;8.43;;;;;;;;;;5036719;28;20404;-80
2023/03/12 08:20:43;;;;;;;15.45;7.38;;;;;;;;;;5053319;28;20131;-80
2023/03/12 08:23:08;;;;;;;11.95;6.95;;;;;;;;;;5053097;28;20033;-80
2023/03/12 08:25:35;;;;;;;14.63;7.93;;;;;;;;;;5036989;28;20133;-80
2023/03/12 08:28:02;;;;;;;15.88;7.30;;;;;;;;;;5052607;28;20029;-79
2023/03/12 08:30:28;;;;;;;11.57;6.85;;;;;;;;;;5036688;28;20033;-80
2023/03/12 08:32:53;;;;;;;10.60;6.63;;;;;;;;;;5036488;28;20045;-80
2023/03/12 08:35:19;;;;;;;16.90;8.73;;;;;;;;;;5054078;28;20064;-80
2023/03/12 08:37:44;;;;;;;17.00;8.55;;;;;;;;;;5036475;28;20028;-80
2023/03/12 08:40:13;;;;;;;12.48;6.88;;;;;;;;;;5054184;28;20048;-77
2023/03/12 08:42:42;;;;;;;8.33;5.20;;;;;;;;;;5035596;28;20564;-79
2023/03/12 08:45:08;;;;;;;15.57;8.93;;;;;;;;;;5052359;28;20284;-79
2023/03/12 08:47:34;;;;;;;10.15;5.55;;;;;;;;;;5051136;28;20055;-79
2023/03/12 08:50:00;;;;;;;13.95;6.53;;;;;;;;;;5052465;28;20029;-80
2023/03/12 08:52:25;;;;;;;12.73;6.55;;;;;;;;;;5034555;28;20451;-80
2023/03/12 08:54:51;;;;;;;11.60;6.43;;;;;;;;;;5034445;28;20033;-78
2023/03/12 08:57:16;;;;;;;29.15;11.10;;;;;;;;;;5052762;28;20028;-79
2023/03/12 08:59:42;;;;;;;9.10;5.72;;;;;;;;;;5053210;28;20029;-79
2023/03/12 09:02:11;;;;;;;8.05;4.78;;;;;;;;;;5052630;28;20037;-79
2023/03/12 09:04:37;;;;;;;9.20;5.80;;;;;;;;;;5051369;28;20127;-79
2023/03/12 09:07:03;;;;;;;16.67;7.53;;;;;;;;;;5034335;28;20122;-78
2023/03/12 09:09:28;;;;;;;15.80;7.20;;;;;;;;;;5018279;28;20025;-79
2023/03/12 09:11:54;;;;;;;15.48;7.50;;;;;;;;;;5050752;28;20082;-78
2023/03/12 09:14:19;;;;;;;16.10;7.45;;;;;;;;;;5051028;28;20021;-79
2023/03/12 09:16:44;;;;;;;8.93;5.53;;;;;;;;;;5034270;28;20021;-78
2023/03/12 09:19:10;;;;;;;8.85;5.90;;;;;;;;;;5052603;28;20025;-79
2023/03/12 09:21:35;;;;;;;8.15;5.53;;;;;;;;;;5035880;28;20028;-79
2023/03/12 09:24:01;;;;;;;10.38;5.55;;;;;;;;;;5052510;28;20063;-78
2023/03/12 09:26:26;;;;;;;7.22;4.50;;;;;;;;;;5035643;28;20461;-78
2023/03/12 09:28:52;;;;;;;11.63;5.07;;;;;;;;;;5052498;28;20029;-79
2023/03/12 09:31:17;;;;;;;11.70;6.30;;;;;;;;;;5052440;28;20037;-79
2023/03/12 09:33:43;;;;;;;11.68;6.80;;;;;;;;;;5053509;28;20087;-79
2023/03/12 09:36:08;;;;;;;18.33;8.60;;;;;;;;;;5053541;28;20040;-80
2023/03/12 09:38:34;;;;;;;11.95;7.93;;;;;;;;;;5052232;28;20495;-78
2023/03/12 09:41:00;;;;;;;9.55;5.47;;;;;;;;;;5052285;28;20048;-80
2023/03/12 09:43:34;;;;;;;7.65;4.75;;;;;;;;;;5019200;28;20473;-78
2023/03/12 09:46:00;;;;;;;9.82;5.47;;;;;;;;;;5053537;28;20029;-79
2023/03/12 09:48:33;;;;;;;9.57;6.10;;;;;;;;;;5035919;28;20119;-79
2023/03/12 09:51:05;;;;;;;8.05;5.72;;;;;;;;;;5052097;28;20382;-78
2023/03/12 09:53:40;;;;;;;7.25;5.13;;;;;;;;;;5052355;28;20049;-78
2023/03/12 09:56:08;;;;;;;8.18;4.70;;;;;;;;;;5035597;28;20029;-78
2023/03/12 09:58:35;;;;;;;5.78;4.30;;;;;;;;;;5036210;28;20656;-78
2023/03/12 10:01:23;;;;;;;7.43;4.40;;;;;;;;;;5035612;28;20340;-79
2023/03/12 10:04:07;;;;;;;8.43;4.85;;;;;;;;;;5053102;28;20040;-79
2023/03/12 10:06:36;;;;;;;8.05;4.53;;;;;;;;;;5053352;28;20398;-79
2023/03/12 10:09:06;;;;;;;16.20;8.70;;;;;;;;;;5038810;28;20420;-79
2023/03/12 10:11:46;;;;;;;11.00;7.10;;;;;;;;;;5055755;28;20056;-78
2023/03/12 10:14:18;;;;;;;21.05;10.32;;;;;;;;;;5056889;28;20314;-78
2023/03/12 10:16:52;;;;;;;15.93;9.10;;;;;;;;;;5039408;28;20476;-79
2023/03/12 10:19:34;;;;;;;11.02;5.72;;;;;;;;;;5055775;28;20439;-77
2023/03/12 10:22:07;;;;;;;10.90;5.47;;;;;;;;;;5055527;28;20025;-77
2023/03/12 10:24:57;;;;;;;10.20;4.65;;;;;;;;;;5055378;28;20021;-78
2023/03/12 10:27:24;;;;;;;7.57;4.18;;;;;;;;;;5056707;28;20323;-78
2023/03/12 10:29:50;;;;;;;9.55;5.22;;;;;;;;;;5041127;28;20063;-79
2023/03/12 10:32:38;;;;;;;10.10;5.95;;;;;;;;;;5057772;28;20434;-78
2023/03/12 10:35:15;;;;;;;6.85;4.35;;;;;;;;;;5058054;28;20103;-79
2023/03/12 10:37:45;;;;;;;5.93;4.50;;;;;;;;;;5059108;28;20029;-80
2023/03/12 10:40:15;;;;;;;4.82;3.78;;;;;;;;;;5075004;28;20121;-78
2023/03/12 10:42:41;;;;;;;9.90;5.32;;;;;;;;;;5060229;28;20381;-79
2023/03/12 10:45:10;;;;;;;14.73;6.30;;;;;;;;;;5058626;28;20436;-79
2023/03/12 10:47:47;;;;;;;11.80;5.30;;;;;;;;;;5076295;28;20131;-78
2023/03/12 10:50:20;;;;;;;13.95;4.90;;;;;;;;;;5057691;28;20044;-79
2023/03/12 10:52:47;;;;;;;8.45;4.68;;;;;;;;;;5074364;28;20035;-79
2023/03/12 10:55:25;;;;;;;5.68;4.10;;;;;;;;;;5073331;28;20123;-78
2023/03/12 10:57:51;;;;;;;5.30;3.88;;;;;;;;;;5074528;28;20115;-78
2023/03/12 11:00:27;;;;;;;7.35;4.38;;;;;;;;;;5057489;28;20028;-78
2023/03/12 11:03:16;;;;;;;7.90;4.90;;;;;;;;;;5058187;28;20044;-79
2023/03/12 11:05:48;;;;;;;9.07;4.65;;;;;;;;;;5057985;28;20028;-78
2023/03/12 11:08:30;;;;;;;22.05;7.93;;;;;;;;;;5057389;28;20393;-78
2023/03/12 11:10:56;;;;;;;11.05;5.20;;;;;;;;;;5062241;28;20020;-77
2023/03/12 11:13:32;;;;;;;13.95;6.82;;;;;;;;;;5063452;28;20036;-78
2023/03/12 11:15:59;;;;;;;19.88;8.52;;;;;;;;;;5060341;28;20028;-78
2023/03/12 11:18:29;;;;;;;19.10;7.22;;;;;;;;;;5061015;28;20039;-78
2023/03/12 11:21:10;;;;;;;12.13;5.22;;;;;;;;;;5081289;28;20016;-78
2023/03/12 11:23:41;;;;;;;28.08;12.18;;;;;;;;;;5085784;28;20040;-79
2023/03/12 11:26:13;;;;;;;24.00;10.07;;;;;;;;;;5047410;28;20043;-77
2023/03/12 11:28:44;;;;;;;11.07;5.15;;;;;;;;;;5063394;28;20077;-78
2023/03/12 11:31:38;;;;;;;8.38;4.70;;;;;;;;;;5058366;28;20106;-78
2023/03/12 11:34:10;;;;;;;7.10;4.00;;;;;;;;;;5074841;28;20138;-78
2023/03/12 11:36:38;;;;;;;4.72;3.75;;;;;;;;;;5058175;28;20119;-78
2023/03/12 11:39:14;;;;;;;7.13;3.80;;;;;;;;;;5058013;28;20048;-77
2023/03/12 11:42:12;;;;;;;6.32;3.97;;;;;;;;;;5074087;28;20029;-78
2023/03/12 11:44:48;;;;;;;6.88;3.92;;;;;;;;;;5061897;28;20383;-77
2023/03/12 11:47:22;;;;;;;9.73;4.90;;;;;;;;;;5057608;28;20028;-78
2023/03/12 11:50:31;;;;;;;8.25;4.25;;;;;;;;;;5075036;28;20131;-77
2023/03/12 11:53:03;;;;;;;8.32;4.47;;;;;;;;;;5057845;28;20074;-78
2023/03/12 11:55:58;;;;;;;11.10;4.85;;;;;;;;;;5073842;28;20028;-77
2023/03/12 11:58:25;;;;;;;7.05;3.63;;;;;;;;;;5065930;28;20036;-78
2023/03/12 12:01:09;;;;;;;6.88;3.80;;;;;;;;;;5073747;28;20028;-79
2023/03/12 12:03:43;;;;;;;5.75;3.60;;;;;;;;;;5058988;28;20039;-78
2023/03/12 12:06:21;;;;;;;12.57;4.55;;;;;;;;;;5074426;28;20067;-79
2023/03/12 12:08:50;;;;;;;7.68;3.83;;;;;;;;;;5074754;28;20033;-77
2023/03/12 12:11:27;;;;;;;6.70;3.30;;;;;;;;;;5073591;28;20123;-77
2023/03/12 12:14:01;;;;;;;6.13;3.83;;;;;;;;;;5073589;28;20082;-77
2023/03/12 12:16:30;;;;;;;8.15;3.47;;;;;;;;;;5073623;28;20025;-78
2023/03/12 12:19:07;;;;;;;3.25;2.90;;;;;;;;;;5073526;28;20378;-77
2023/03/12 12:21:51;;;;;;;4.60;3.35;;;;;;;;;;5073371;28;20409;-77
2023/03/12 12:24:25;;;;;;;5.15;3.47;;;;;;;;;;5074484;28;20039;-77
2023/03/12 12:27:03;;;;;;;6.13;4.05;;;;;;;;;;5074790;28;20071;-78
2023/03/12 12:29:28;;;;;;;6.00;3.50;;;;;;;;;;5074364;28;20034;-77
2023/03/12 12:31:55;;;;;;;8.27;4.70;;;;;;;;;;5074016;28;20024;-78
2023/03/12 12:34:26;;;;;;;5.53;3.60;;;;;;;;;;5056722;28;20078;-78
2023/03/12 12:37:11;;;;;;;7.90;3.50;;;;;;;;;;5074443;28;20454;-78
2023/03/12 12:39:39;;;;;;;5.75;3.40;;;;;;;;;;5059178;28;20135;-78
2023/03/12 12:42:10;;;;;;;5.30;3.20;;;;;;;;;;5056333;28;20086;-78
2023/03/12 12:44:50;;;;;;;4.22;3.00;;;;;;;;;;5056656;28;20020;-78
2023/03/12 12:47:18;;;;;;;4.55;3.30;;;;;;;;;;5056927;28;20037;-78
2023/03/12 12:49:47;;;;;;;4.20;3.00;;;;;;;;;;5039638;28;20040;-81
2023/03/12 12:52:21;;;;;;;5.25;3.10;;;;;;;;;;5073098;28;20047;-78
2023/03/12 12:55:05;;;;;;;4.22;3.28;;;;;;;;;;5073149;28;20063;-79
2023/03/12 12:57:40;;;;;;;6.50;3.03;;;;;;;;;;5074436;28;20024;-78
2023/03/12 13:00:12;;;;;;;3.20;2.80;;;;;;;;;;5056864;28;20035;-79
2023/03/12 13:02:38;;;;;;;4.85;3.33;;;;;;;;;;5074016;28;20451;-78
2023/03/12 13:05:12;;;;;;;6.00;3.38;;;;;;;;;;5039645;28;20032;-79
2023/03/12 13:07:38;;;;;;;6.07;3.13;;;;;;;;;;5040899;28;20135;-78
2023/03/12 13:10:04;;;;;;;6.57;2.90;;;;;;;;;;5073951;28;20119;-78
2023/03/12 13:12:31;;;;;;;4.15;3.00;;;;;;;;;;5056297;28;20428;-78
2023/03/12 13:14:57;;;;;;;5.90;3.45;;;;;;;;;;5056330;28;20416;-79
2023/03/12 13:17:32;;;;;;;6.30;3.13;;;;;;;;;;5040068;28;20418;-78
2023/03/12 13:20:19;;;;;;;5.13;3.05;;;;;;;;;;5039954;28;20091;-79
2023/03/12 13:23:09;;;;;;;5.90;3.47;;;;;;;;;;5056371;28;20060;-79
2023/03/12 13:26:08;;;;;;;4.82;3.25;;;;;;;;;;5073829;28;20093;-78
2023/03/12 13:28:56;;;;;;;5.75;3.50;;;;;;;;;;5035829;28;20032;-79
2023/03/12 13:31:27;;;;;;;6.82;4.25;;;;;;;;;;5072638;28;20036;-77
2023/03/12 13:34:16;;;;;;;5.15;3.22;;;;;;;;;;5073388;28;20021;-79
2023/03/12 13:36:43;;;;;;;6.45;3.20;;;;;;;;;;5043176;28;20054;-80
2023/03/12 13:39:14;;;;;;;5.10;3.50;;;;;;;;;;5056050;28;20033;-79
2023/03/12 13:41:40;;;;;;;9.07;3.95;;;;;;;;;;5074997;28;20024;-79
2023/03/12 13:44:27;;;;;;;5.72;3.33;;;;;;;;;;5076344;28;20035;-78
2023/03/12 13:47:29;;;;;;;3.47;2.97;;;;;;;;;;5077344;28;20077;-79
2023/03/12 13:49:55;;;;;;;4.05;3.08;;;;;;;;;;5076717;28;20067;-79
2023/03/12 13:52:25;;;;;;;6.35;3.80;;;;;;;;;;5059939;28;20043;-78
2023/03/12 13:55:12;;;;;;;6.15;3.90;;;;;;;;;;5059725;28;20514;-78
2023/03/12 13:57:44;;;;;;;6.78;3.60;;;;;;;;;;5077340;28;20525;-77
2023/03/12 14:00:17;;;;;;;9.75;4.32;;;;;;;;;;5059558;28;20029;-80
2023/03/12 14:02:56;;;;;;;19.52;7.95;;;;;;;;;;5059776;28;20043;-80
2023/03/12 14:05:21;;;;;;;6.20;3.88;;;;;;;;;;5076227;28;20063;-78
2023/03/12 14:08:23;;;;;;;6.22;3.60;;;;;;;;;;5076224;28;20059;-79
2023/03/12 14:11:18;;;;;;;10.02;4.80;;;;;;;;;;5077534;28;20040;-79
2023/03/12 14:13:59;;;;;;;6.35;3.80;;;;;;;;;;5040042;28;20037;-79
2023/03/12 14:16:27;;;;;;;9.93;4.30;;;;;;;;;;5075732;28;20032;-79
2023/03/12 14:18:52;;;;;;;10.32;3.92;;;;;;;;;;5075797;28;20456;-79
2023/03/12 14:21:18;;;;;;;7.90;5.32;;;;;;;;;;5042651;28;20052;-78
2023/03/12 14:23:47;;;;;;;5.78;4.43;;;;;;;;;;5042375;28;20131;-79
2023/03/12 14:26:19;;;;;;;6.18;3.20;;;;;;;;;;5059276;28;20115;-79
2023/03/12 14:28:44;;;;;;;4.75;3.47;;;;;;;;;;5059507;28;20020;-79
2023/03/12 14:31:14;;;;;;;5.95;3.95;;;;;;;;;;5058500;28;20025;-78
2023/03/12 14:33:45;;;;;;;5.68;3.47;;;;;;;;;;5042335;28;20431;-80
2023/03/12 14:36:13;;;;;;;5.75;3.53;;;;;;;;;;5076860;28;20029;-79
2023/03/12 14:38:41;;;;;;;7.43;3.65;;;;;;;;;;5058983;28;20466;-79
2023/03/12 14:41:13;;;;;;;7.40;4.57;;;;;;;;;;5042481;28;20036;-78
2023/03/12 14:43:39;;;;;;;6.50;4.30;;;;;;;;;;5075442;28;20029;-80
2023/03/12 14:46:13;;;;;;;6.85;3.92;;;;;;;;;;5058843;28;20428;-79